createdAt,value
2022-12-17T00:02:29.440Z,12.83
2022-12-17T00:05:15.007Z,12.50
2022-12-17T00:08:00.766Z,14.13
2022-12-17T00:10:46.234Z,14.00
2022-12-17T00:13:38.381Z,15.57
2022-12-17T00:16:24.538Z,15.63
2022-12-17T00:19:11.114Z,14.37
2022-12-17T00:21:56.492Z,15.10
2022-12-17T00:24:42.231Z,14.07
2022-12-17T00:27:27.932Z,14.00
2022-12-17T00:30:13.544Z,13.87
2022-12-17T00:32:59.246Z,14.37
2022-12-17T00:35:46.716Z,17.10
2022-12-17T00:38:34.978Z,15.63
2022-12-17T00:41:21.870Z,13.73
2022-12-17T00:44:07.482Z,13.13
2022-12-17T00:46:53.156Z,12.83
2022-12-17T00:49:39.790Z,13.63
2022-12-17T00:52:25.432Z,13.00
2022-12-17T00:55:11.161Z,13.03
2022-12-17T00:57:56.773Z,11.30
2022-12-17T01:00:42.251Z,12.70
2022-12-17T01:03:28.973Z,12.47
2022-12-17T01:06:14.654Z,12.60
2022-12-17T01:09:00.217Z,12.93
2022-12-17T01:11:46.831Z,13.63
2022-12-17T01:14:33.301Z,12.07
2022-12-17T01:17:19.071Z,12.50
2022-12-17T01:20:05.649Z,12.57
2022-12-17T01:22:51.148Z,11.53
2022-12-17T01:25:37.110Z,12.33
2022-12-17T01:28:23.048Z,12.07
2022-12-17T01:31:08.847Z,11.87
2022-12-17T01:33:54.420Z,16.92
2022-12-17T01:36:40.032Z,11.53
2022-12-17T01:39:26.295Z,12.77
2022-12-17T01:42:12.084Z,12.70
2022-12-17T01:45:00.521Z,12.97
2022-12-17T01:47:46.045Z,14.03
2022-12-17T01:50:31.785Z,17.57
2022-12-17T01:53:17.359Z,13.93
2022-12-17T01:56:03.141Z,13.13
2022-12-17T01:58:48.809Z,12.67
2022-12-17T02:01:34.741Z,12.87
2022-12-17T02:04:20.103Z,13.20
2022-12-17T02:07:05.411Z,13.37
2022-12-17T02:09:59.539Z,11.73
2022-12-17T02:12:53.806Z,12.37
2022-12-17T02:15:51.894Z,12.00
2022-12-17T02:18:37.476Z,13.10
2022-12-17T02:21:24.093Z,15.83
2022-12-17T02:24:15.593Z,15.50
2022-12-17T02:27:04.477Z,14.77
2022-12-17T02:29:52.951Z,13.57
2022-12-17T02:32:38.595Z,11.73
2022-12-17T02:35:24.098Z,11.80
2022-12-17T02:38:09.582Z,13.17
2022-12-17T02:40:54.929Z,12.90
2022-12-17T02:43:40.757Z,12.50
2022-12-17T02:46:26.762Z,12.17
2022-12-17T02:49:12.476Z,12.23
2022-12-17T02:51:58.342Z,12.63
2022-12-17T02:54:47.449Z,12.87
2022-12-17T02:57:33.053Z,12.37
2022-12-17T03:00:18.526Z,12.33
2022-12-17T03:03:03.913Z,18.63
2022-12-17T03:05:49.457Z,15.00
2022-12-17T03:08:35.087Z,13.83
2022-12-17T03:11:21.007Z,13.77
2022-12-17T03:14:07.513Z,19.67
2022-12-17T03:16:54.758Z,16.50
2022-12-17T03:19:40.325Z,14.07
2022-12-17T03:22:26.861Z,14.83
2022-12-17T03:25:12.828Z,19.80
2022-12-17T03:27:58.705Z,20.77
2022-12-17T03:30:48.934Z,20.25
2022-12-17T03:33:29.960Z,14.87
2022-12-17T03:36:16.438Z,15.13
2022-12-17T03:39:02.790Z,14.67
2022-12-17T03:41:48.237Z,13.50
2022-12-17T03:44:34.723Z,13.90
2022-12-17T03:47:20.521Z,13.80
2022-12-17T03:50:06.913Z,19.98
2022-12-17T03:52:52.676Z,15.90
2022-12-17T03:55:38.445Z,21.50
2022-12-17T03:58:24.133Z,17.20
2022-12-17T04:01:09.983Z,18.03
2022-12-17T04:03:55.520Z,15.60
2022-12-17T04:06:41.238Z,15.50
2022-12-17T04:09:27.507Z,14.77
2022-12-17T04:12:13.319Z,14.47
2022-12-17T04:14:59.647Z,14.33
2022-12-17T04:17:45.526Z,11.93
2022-12-17T04:20:31.374Z,11.40
2022-12-17T04:23:17.055Z,10.27
2022-12-17T04:26:02.993Z,10.40
2022-12-17T04:28:48.634Z,15.30
2022-12-17T04:31:34.761Z,11.97
2022-12-17T04:34:20.686Z,11.57
2022-12-17T04:37:06.260Z,15.93
2022-12-17T04:39:51.969Z,16.70
2022-12-17T04:42:37.376Z,13.00
2022-12-17T04:45:24.030Z,16.60
2022-12-17T04:48:09.556Z,13.13
2022-12-17T04:50:55.317Z,11.37
2022-12-17T04:53:41.174Z,11.50
2022-12-17T04:56:27.160Z,12.27
2022-12-17T04:59:13.027Z,15.88
2022-12-17T05:01:59.665Z,12.83
2022-12-17T05:04:44.942Z,11.07
2022-12-17T05:07:30.811Z,10.93
2022-12-17T05:10:16.618Z,9.47
2022-12-17T05:13:02.448Z,10.87
2022-12-17T05:15:52.927Z,10.60
2022-12-17T05:18:33.968Z,10.87
2022-12-17T05:21:19.580Z,15.88
2022-12-17T05:24:05.940Z,12.00
2022-12-17T05:26:45.438Z,11.70
2022-12-17T05:29:31.112Z,11.30
2022-12-17T05:32:16.675Z,11.50
2022-12-17T05:35:03.871Z,11.10
2022-12-17T05:37:49.394Z,11.30
2022-12-17T05:40:35.292Z,10.77
2022-12-17T05:43:20.893Z,15.77
2022-12-17T05:46:07.188Z,11.10
2022-12-17T05:48:52.969Z,12.67
2022-12-17T05:51:39.399Z,11.60
2022-12-17T05:54:24.922Z,10.77
2022-12-17T05:57:10.760Z,10.53
2022-12-17T05:59:56.353Z,10.37
2022-12-17T06:02:42.231Z,11.00
2022-12-17T06:05:28.030Z,10.50
2022-12-17T06:08:13.771Z,10.33
2022-12-17T06:10:59.407Z,11.77
2022-12-17T06:13:45.241Z,10.20
2022-12-17T06:16:31.088Z,10.27
2022-12-17T06:19:17.147Z,16.02
2022-12-17T06:22:03.388Z,16.77
2022-12-17T06:24:49.108Z,12.70
2022-12-17T06:27:34.820Z,10.53
2022-12-17T06:30:20.452Z,10.47
2022-12-17T06:33:06.397Z,10.10
2022-12-17T06:35:52.305Z,10.43
2022-12-17T06:38:37.977Z,12.70
2022-12-17T06:41:23.717Z,13.32
2022-12-17T06:44:09.192Z,10.87
2022-12-17T06:46:54.971Z,14.27
2022-12-17T06:49:40.627Z,13.50
2022-12-17T06:52:26.268Z,14.48
2022-12-17T06:55:12.540Z,10.93
2022-12-17T06:57:58.260Z,9.67
2022-12-17T07:00:44.354Z,9.70
2022-12-17T07:03:30.105Z,9.97
2022-12-17T07:06:15.648Z,13.20
2022-12-17T07:09:01.635Z,9.90
2022-12-17T07:11:47.681Z,9.67
2022-12-17T07:14:33.224Z,9.77
2022-12-17T07:17:19.052Z,8.80
2022-12-17T07:20:04.744Z,7.50
2022-12-17T07:22:51.104Z,9.37
2022-12-17T07:25:40.451Z,8.73
2022-12-17T07:28:23.334Z,8.30
2022-12-17T07:31:10.250Z,8.87
2022-12-17T07:33:56.105Z,8.47
2022-12-17T07:36:41.755Z,8.67
2022-12-17T07:39:27.211Z,8.23
2022-12-17T07:42:13.797Z,8.40
2022-12-17T07:44:59.991Z,7.47
2022-12-17T07:47:45.779Z,8.20
2022-12-17T07:50:32.112Z,11.50
2022-12-17T07:53:18.206Z,9.90
2022-12-17T07:56:04.213Z,8.23
2022-12-17T07:58:49.847Z,8.67
2022-12-17T08:01:35.436Z,7.60
2022-12-17T08:04:22.093Z,7.70
2022-12-17T08:07:11.267Z,7.90
2022-12-17T08:09:53.615Z,8.00
2022-12-17T08:12:40.338Z,12.02
2022-12-17T08:15:25.961Z,8.90
2022-12-17T08:18:11.572Z,8.57
2022-12-17T08:20:57.195Z,8.70
2022-12-17T08:23:42.828Z,13.02
2022-12-17T08:26:28.665Z,9.97
2022-12-17T08:29:14.011Z,8.53
2022-12-17T08:32:00.942Z,8.47
2022-12-17T08:34:46.398Z,8.80
2022-12-17T08:37:31.981Z,7.97
2022-12-17T08:40:11.312Z,8.63
2022-12-17T08:42:56.904Z,9.10
2022-12-17T08:45:43.647Z,8.53
2022-12-17T08:48:14.022Z,9.07
2022-12-17T08:50:59.546Z,9.00
2022-12-17T08:53:45.508Z,8.90
2022-12-17T08:56:31.135Z,8.43
2022-12-17T08:59:16.767Z,8.10
2022-12-17T09:02:02.668Z,9.67
2022-12-17T09:04:48.932Z,9.63
2022-12-17T09:07:34.765Z,9.53
2022-12-17T09:10:20.780Z,7.63
2022-12-17T09:13:06.818Z,10.07
2022-12-17T09:15:52.774Z,9.00
2022-12-17T09:18:38.527Z,9.73
2022-12-17T09:21:25.111Z,8.73
2022-12-17T09:24:11.786Z,9.03
2022-12-17T09:26:58.305Z,8.87
2022-12-17T09:29:43.789Z,8.73
2022-12-17T09:32:29.826Z,9.73
2022-12-17T09:35:15.182Z,8.77
2022-12-17T09:38:02.734Z,8.73
2022-12-17T09:40:48.444Z,9.10
2022-12-17T09:43:42.791Z,8.80
2022-12-17T09:46:28.376Z,8.50
2022-12-17T09:49:14.158Z,12.90
2022-12-17T09:52:00.664Z,10.10
2022-12-17T09:54:48.988Z,10.30
2022-12-17T09:57:34.840Z,9.87
2022-12-17T10:00:36.198Z,9.10
2022-12-17T10:03:21.928Z,10.37
2022-12-17T10:06:07.469Z,9.17
2022-12-17T10:08:34.994Z,10.67
2022-12-17T10:11:21.148Z,10.13
2022-12-17T10:14:07.549Z,9.43
2022-12-17T10:16:53.929Z,9.97
2022-12-17T10:19:47.914Z,9.40
2022-12-17T10:22:33.494Z,13.75
2022-12-17T10:25:25.132Z,14.93
2022-12-17T10:28:10.788Z,10.97
2022-12-17T10:30:56.715Z,11.50
2022-12-17T10:33:42.459Z,11.37
2022-12-17T10:36:40.146Z,11.03
2022-12-17T10:39:26.074Z,9.77
2022-12-17T10:42:11.684Z,10.43
2022-12-17T10:44:57.212Z,9.47
2022-12-17T10:47:43.924Z,10.23
2022-12-17T10:50:33.828Z,9.83
2022-12-17T10:53:19.353Z,10.10
2022-12-17T10:56:11.547Z,10.13
2022-12-17T10:58:57.022Z,9.80
2022-12-17T11:01:43.059Z,10.50
2022-12-17T11:04:44.018Z,9.47
2022-12-17T11:07:31.018Z,10.70
2022-12-17T11:10:16.708Z,14.65
2022-12-17T11:13:02.626Z,14.25
2022-12-17T11:16:01.222Z,15.02
2022-12-17T11:18:56.151Z,11.40
2022-12-17T11:21:41.708Z,15.07
2022-12-17T11:24:39.920Z,11.37
2022-12-17T11:27:25.548Z,11.00
2022-12-17T11:30:11.244Z,11.80
2022-12-17T11:33:03.531Z,10.60
2022-12-17T11:35:51.911Z,10.27
2022-12-17T11:38:46.167Z,10.53
2022-12-17T11:41:35.108Z,10.60
2022-12-17T11:44:41.721Z,11.47
2022-12-17T11:47:32.818Z,11.00
2022-12-17T11:50:30.298Z,16.12
2022-12-17T11:53:34.409Z,12.93
2022-12-17T11:56:26.125Z,16.48
2022-12-17T11:59:11.513Z,16.62
2022-12-17T12:02:00.012Z,12.33
2022-12-17T12:04:58.116Z,12.90
2022-12-17T12:07:49.746Z,11.37
2022-12-17T12:10:44.641Z,12.10
2022-12-17T12:13:30.558Z,11.87
2022-12-17T12:16:43.353Z,16.55
2022-12-17T12:19:43.994Z,12.63
2022-12-17T12:22:38.586Z,12.50
2022-12-17T12:25:42.246Z,17.07
2022-12-17T12:28:42.748Z,17.27
2022-12-17T12:31:46.564Z,13.40
2022-12-17T12:34:34.823Z,13.07
2022-12-17T12:37:15.092Z,12.67
2022-12-17T12:40:03.295Z,12.97
2022-12-17T12:42:57.677Z,13.13
2022-12-17T12:46:11.445Z,12.67
2022-12-17T12:49:09.164Z,17.77
2022-12-17T12:51:55.640Z,13.03
2022-12-17T12:54:41.606Z,13.03
2022-12-17T12:57:46.370Z,13.27
2022-12-17T13:00:56.897Z,13.37
2022-12-17T13:03:49.178Z,14.30
2022-12-17T13:06:41.176Z,14.23
2022-12-17T13:09:15.730Z,12.80
2022-12-17T13:11:46.218Z,13.70
2022-12-17T13:14:19.414Z,12.33
2022-12-17T13:16:55.417Z,11.60
2022-12-17T13:19:32.454Z,13.43
2022-12-17T13:22:20.252Z,13.00
2022-12-17T13:24:43.089Z,13.27
2022-12-17T13:27:32.265Z,17.30
2022-12-17T13:30:11.714Z,14.73
2022-12-17T13:32:39.298Z,16.40
2022-12-17T13:35:25.914Z,21.40
2022-12-17T13:38:03.295Z,15.13
2022-12-17T13:40:40.381Z,13.90
2022-12-17T13:43:23.680Z,14.30
2022-12-17T13:45:51.346Z,14.97
2022-12-17T13:48:21.695Z,19.13
2022-12-17T13:51:01.676Z,14.57
2022-12-17T13:53:29.173Z,14.33
2022-12-17T13:55:56.716Z,19.73
2022-12-17T13:58:24.303Z,21.02
2022-12-17T14:00:51.920Z,16.00
2022-12-17T14:03:37.083Z,19.33
2022-12-17T14:05:50.814Z,14.73
2022-12-17T14:08:18.402Z,13.67
2022-12-17T14:10:45.902Z,14.17
2022-12-17T14:13:14.008Z,13.53
2022-12-17T14:15:41.552Z,13.07
2022-12-17T14:18:09.097Z,13.10
2022-12-17T14:20:37.450Z,13.90
2022-12-17T14:23:05.015Z,13.30
2022-12-17T14:25:38.227Z,13.33
2022-12-17T14:28:06.602Z,18.25
2022-12-17T14:30:43.048Z,14.73
2022-12-17T14:33:06.044Z,14.83
2022-12-17T14:35:36.275Z,18.37
2022-12-17T14:38:03.811Z,15.20
2022-12-17T14:40:31.334Z,13.30
2022-12-17T14:42:58.917Z,13.63
2022-12-17T14:45:27.211Z,17.93
2022-12-17T14:48:00.489Z,18.62
2022-12-17T14:50:28.818Z,14.83
2022-12-17T14:52:57.676Z,13.63
2022-12-17T14:55:55.181Z,13.47
2022-12-17T14:58:18.775Z,12.37
2022-12-17T15:00:53.000Z,13.53
2022-12-17T15:03:27.223Z,12.77
2022-12-17T15:06:03.622Z,13.73
2022-12-17T15:08:31.187Z,14.10
2022-12-17T15:10:58.721Z,14.10
2022-12-17T15:13:26.255Z,13.23
2022-12-17T15:15:54.589Z,14.30
2022-12-17T15:18:22.142Z,13.37
2022-12-17T15:20:49.689Z,13.97
2022-12-17T15:23:17.262Z,14.07
2022-12-17T15:25:47.050Z,13.40
2022-12-17T15:28:12.368Z,13.07
2022-12-17T15:30:40.020Z,13.43
2022-12-17T15:33:07.454Z,13.77
2022-12-17T15:35:35.890Z,13.90
2022-12-17T15:38:03.476Z,12.87
2022-12-17T15:40:31.766Z,13.20
2022-12-17T15:43:13.109Z,13.40
2022-12-17T15:45:46.371Z,12.53
2022-12-17T15:48:13.873Z,12.83
2022-12-17T15:50:41.474Z,12.57
2022-12-17T15:53:09.020Z,13.40
2022-12-17T15:55:37.323Z,12.90
2022-12-17T15:58:04.921Z,12.37
2022-12-17T16:00:32.455Z,13.33
2022-12-17T16:03:00.129Z,11.57
2022-12-17T16:05:27.609Z,11.67
2022-12-17T16:07:55.170Z,17.37
2022-12-17T16:10:22.693Z,15.20
2022-12-17T16:12:50.277Z,17.83
2022-12-17T16:15:17.817Z,14.47
2022-12-17T16:17:45.364Z,18.23
2022-12-17T16:20:12.999Z,15.03
2022-12-17T16:22:40.568Z,13.43
2022-12-17T16:25:08.196Z,13.57
2022-12-17T16:27:35.757Z,13.03
2022-12-17T16:30:04.094Z,13.73
2022-12-17T16:32:36.189Z,12.13
2022-12-17T16:34:59.496Z,12.70
2022-12-17T16:37:27.026Z,12.47
2022-12-17T16:39:59.811Z,13.37
2022-12-17T16:42:22.932Z,12.63
2022-12-17T16:44:50.485Z,11.87
2022-12-17T16:47:18.054Z,12.93
2022-12-17T16:49:45.633Z,11.77
2022-12-17T16:52:13.924Z,11.43
2022-12-17T16:54:41.465Z,11.23
2022-12-17T16:57:09.815Z,13.13
2022-12-17T16:59:37.372Z,13.10
2022-12-17T17:02:05.025Z,17.27
2022-12-17T17:04:32.480Z,13.93
2022-12-17T17:07:00.013Z,13.03
2022-12-17T17:09:27.648Z,13.00
2022-12-17T17:11:56.016Z,11.83
2022-12-17T17:14:23.561Z,12.30
2022-12-17T17:16:51.106Z,12.00
2022-12-17T17:19:19.522Z,12.07
2022-12-17T17:21:49.106Z,12.13
2022-12-17T17:24:20.883Z,16.80
2022-12-17T17:26:44.225Z,17.12
2022-12-17T17:29:11.765Z,13.80
2022-12-17T17:34:09.797Z,13.63
2022-12-17T17:36:38.112Z,12.23
2022-12-17T17:39:05.638Z,12.20
2022-12-17T17:41:33.989Z,13.20
2022-12-17T17:44:07.291Z,11.27
2022-12-17T17:46:34.866Z,12.27
2022-12-17T17:49:02.402Z,11.37
2022-12-17T17:52:07.213Z,11.87
2022-12-17T17:53:57.486Z,11.70
2022-12-17T17:56:25.069Z,11.90
2022-12-17T17:58:52.600Z,10.93
2022-12-17T18:01:26.027Z,10.43
2022-12-17T18:03:53.606Z,10.70
2022-12-17T18:06:21.035Z,11.83
2022-12-17T18:08:48.572Z,11.30
2022-12-17T18:11:21.528Z,15.83
2022-12-17T18:13:55.731Z,12.63
2022-12-17T18:16:29.675Z,13.57
2022-12-17T18:18:57.128Z,12.83
2022-12-17T18:21:24.735Z,16.67
2022-12-17T18:23:58.280Z,13.67
2022-12-17T18:26:25.807Z,13.00
2022-12-17T18:28:54.101Z,11.73
2022-12-17T18:31:21.737Z,12.13
2022-12-17T18:33:49.230Z,13.40
2022-12-17T18:36:16.764Z,15.30
2022-12-17T18:38:45.097Z,14.67
2022-12-17T18:41:30.561Z,13.30
2022-12-17T18:44:00.990Z,13.43
2022-12-17T18:46:28.586Z,12.90
2022-12-17T18:48:59.197Z,12.00
2022-12-17T18:51:26.765Z,12.37
2022-12-17T18:53:56.821Z,14.37
2022-12-17T18:56:52.445Z,13.47
2022-12-17T18:58:52.719Z,12.60
2022-12-17T19:01:20.355Z,12.37
2022-12-17T19:03:47.809Z,17.10
2022-12-17T19:06:15.962Z,14.50
2022-12-17T19:08:43.496Z,13.00
2022-12-17T19:11:11.789Z,12.90
2022-12-17T19:13:39.353Z,12.80
2022-12-17T19:16:09.738Z,12.23
2022-12-17T19:18:37.586Z,14.30
2022-12-17T19:21:04.824Z,14.20
2022-12-17T19:23:33.682Z,13.17
2022-12-17T19:26:05.910Z,12.57
2022-12-17T19:28:33.508Z,13.90
2022-12-17T19:31:01.028Z,17.63
2022-12-17T19:33:28.564Z,14.67
2022-12-17T19:36:05.158Z,17.47
2022-12-17T19:38:32.692Z,13.73
2022-12-17T19:41:12.179Z,12.40
2022-12-17T19:43:40.473Z,12.27
2022-12-17T19:46:10.718Z,12.67
2022-12-17T19:48:41.303Z,13.57
2022-12-17T19:51:06.543Z,12.57
2022-12-17T19:53:34.077Z,12.60
2022-12-17T19:56:14.370Z,12.30
2022-12-17T19:58:42.116Z,12.63
2022-12-17T20:01:09.507Z,13.90
2022-12-17T20:03:37.076Z,14.70
2022-12-17T20:06:05.324Z,18.30
2022-12-17T20:08:32.868Z,18.35
2022-12-17T20:11:00.479Z,19.42
2022-12-17T20:13:28.002Z,15.03
2022-12-17T20:16:01.233Z,19.33
2022-12-17T20:18:28.810Z,15.70
2022-12-17T20:21:02.919Z,13.43
2022-12-17T20:23:31.246Z,13.60
2022-12-17T20:26:01.593Z,13.60
2022-12-17T20:28:29.180Z,13.87
2022-12-17T20:30:58.120Z,17.57
2022-12-17T20:33:24.646Z,17.87
2022-12-17T20:35:52.183Z,18.35
2022-12-17T20:38:20.503Z,15.00
2022-12-17T20:40:49.259Z,13.93
2022-12-17T20:43:16.801Z,14.27
2022-12-17T20:45:48.107Z,13.17
2022-12-17T20:48:15.933Z,12.80
2022-12-17T20:50:43.479Z,15.10
2022-12-17T20:53:11.793Z,14.50
2022-12-17T20:55:39.665Z,14.93
2022-12-17T20:58:07.178Z,21.08
2022-12-17T21:00:34.702Z,17.37
2022-12-17T21:03:02.404Z,14.47
2022-12-17T21:05:29.817Z,21.67
2022-12-17T21:07:57.380Z,22.77
2022-12-17T21:10:25.929Z,21.48
2022-12-17T21:13:11.629Z,23.60
2022-12-17T21:15:40.120Z,24.40
2022-12-17T21:18:07.678Z,26.90
2022-12-17T21:20:35.199Z,25.50
2022-12-17T21:23:02.789Z,25.93
2022-12-17T21:25:30.319Z,26.70
2022-12-17T21:27:57.854Z,23.97
2022-12-17T21:30:26.219Z,20.73
2022-12-17T21:32:53.720Z,20.93
2022-12-17T21:35:21.244Z,21.20
2022-12-17T21:37:50.680Z,18.73
2022-12-17T21:40:18.206Z,15.60
2022-12-17T21:43:01.829Z,16.10
2022-12-17T21:45:36.139Z,21.55
2022-12-17T21:48:03.684Z,16.47
2022-12-17T21:50:31.621Z,13.97
2022-12-17T21:52:59.185Z,14.00
2022-12-17T21:55:26.710Z,14.60
2022-12-17T21:57:55.072Z,12.93
2022-12-17T22:00:23.374Z,13.67
2022-12-17T22:02:50.991Z,12.83
2022-12-17T22:05:18.571Z,12.10
2022-12-17T22:07:46.893Z,13.00
2022-12-17T22:10:38.450Z,12.87
2022-12-17T22:13:00.713Z,13.37
2022-12-17T22:15:32.574Z,14.57
2022-12-17T22:17:56.537Z,14.57
2022-12-17T22:20:24.900Z,14.10
2022-12-17T22:22:52.453Z,13.73
2022-12-17T22:25:19.989Z,19.50
2022-12-17T22:27:49.366Z,15.23
2022-12-17T22:30:34.871Z,15.87
2022-12-17T22:33:07.619Z,14.23
2022-12-17T22:37:45.143Z,15.43
2022-12-17T22:41:10.081Z,14.97
2022-12-17T22:44:32.116Z,14.77
2022-12-17T22:44:42.467Z,14.97
2022-12-17T22:45:41.704Z,15.33
2022-12-17T22:48:09.253Z,14.10
2022-12-17T22:50:46.195Z,13.67
2022-12-17T22:53:05.136Z,14.37
2022-12-17T22:55:32.678Z,12.97
2022-12-17T22:58:00.217Z,12.17
2022-12-17T23:00:28.104Z,14.40
2022-12-17T23:02:55.655Z,17.17
2022-12-17T23:05:23.935Z,15.93
2022-12-17T23:07:51.505Z,14.73
2022-12-17T23:10:19.060Z,22.97
2022-12-17T23:12:52.582Z,23.23
2022-12-17T23:15:25.589Z,24.95
2022-12-17T23:17:53.114Z,24.75
2022-12-17T23:20:20.661Z,21.60
2022-12-17T23:22:48.834Z,26.57
2022-12-17T23:25:16.374Z,25.08
2022-12-17T23:27:43.997Z,20.83
2022-12-17T23:30:11.764Z,19.50
2022-12-17T23:32:40.055Z,19.50
2022-12-17T23:35:08.471Z,18.77
2022-12-17T23:37:39.957Z,18.10
2022-12-17T23:40:05.309Z,17.87
2022-12-17T23:42:32.838Z,16.00
2022-12-17T23:45:00.939Z,15.50
2022-12-17T23:47:28.464Z,16.13
2022-12-17T23:49:56.000Z,17.03
2022-12-17T23:52:23.563Z,15.47
2022-12-17T23:54:51.098Z,15.53
2022-12-17T23:57:18.644Z,16.47
2022-12-17T23:59:46.514Z,15.73
